Southlake's Hourly Summary for Wednesday, May 16, 2018
Hour Temp
(f)
RH
(%)
Solar Rad.
(MJ/m2)
Rainfall
(in)
Wind
(mph)
5/16/2018 12:00 AM 74 74 0 0 1.42
5/16/2018 1:00 AM 73 78 0 0 1.9
5/16/2018 2:00 AM 70 84 0 0 3.08
5/16/2018 3:00 AM 71 81 0 0 4.75
5/16/2018 4:00 AM 70 81 0 0 3.69
5/16/2018 5:00 AM 70 80 0 0 4.3
5/16/2018 6:00 AM 68 87 0.01 0 2.96
5/16/2018 7:00 AM 68 89 0.18 0 4.03
5/16/2018 8:00 AM 71 80 0.99 0 3.75
5/16/2018 9:00 AM 75 71 1.76 0 2.4
5/16/2018 10:00 AM 77 69 1.42 0 2.29
5/16/2018 11:00 AM 80 64 2.59 0 3.42
5/16/2018 12:00 PM 83 58 3.38 0 4.14
5/16/2018 1:00 PM 86 52 3.55 0 5.48
5/16/2018 2:00 PM 88 44 3.48 0 5.98
5/16/2018 3:00 PM 88 43 3.04 0 5.09
5/16/2018 4:00 PM 89 39 2.36 0 5.09
5/16/2018 5:00 PM 88 38 1.34 0 4.59
5/16/2018 6:00 PM 87 40 1.14 0 4.14
5/16/2018 7:00 PM 85 44 0.44 0 4.42
5/16/2018 8:00 PM 81 50 0.03 0 1.9
5/16/2018 9:00 PM 79 57 0 0 3.02
5/16/2018 10:00 PM 78 60 0 0 2.35
5/16/2018 11:00 PM 76 67 0 0 2.86
Data Summary 78 63 25.71 0.00 3.63